createdAt,value
2022-10-06T00:01:27.978Z,14.99
2022-10-06T00:03:54.366Z,14.96
2022-10-06T00:06:20.669Z,14.93
2022-10-06T00:08:47.040Z,14.92
2022-10-06T00:11:14.039Z,14.90
2022-10-06T00:13:41.049Z,14.87
2022-10-06T00:16:11.089Z,14.86
2022-10-06T00:18:37.629Z,14.85
2022-10-06T00:21:04.176Z,14.84
2022-10-06T00:23:30.687Z,14.85
2022-10-06T00:25:57.090Z,14.82
2022-10-06T00:28:23.465Z,14.86
2022-10-06T00:30:51.090Z,14.86
2022-10-06T00:33:17.996Z,14.85
2022-10-06T00:35:44.457Z,14.87
2022-10-06T00:38:12.871Z,14.84
2022-10-06T00:40:46.433Z,14.84
2022-10-06T00:43:31.780Z,14.81
2022-10-06T00:45:58.225Z,14.75
2022-10-06T00:48:26.843Z,14.66
2022-10-06T00:50:56.553Z,14.67
2022-10-06T00:53:32.261Z,14.60
2022-10-06T00:55:58.645Z,14.60
2022-10-06T00:58:25.319Z,14.58
2022-10-06T01:00:56.018Z,14.55
2022-10-06T01:03:27.116Z,14.55
2022-10-06T01:05:54.638Z,14.52
2022-10-06T01:08:22.312Z,14.50
2022-10-06T01:10:48.625Z,14.47
2022-10-06T01:13:15.964Z,14.44
2022-10-06T01:15:48.067Z,14.42
2022-10-06T01:18:17.623Z,14.37
2022-10-06T01:20:47.061Z,14.35
2022-10-06T01:23:13.569Z,14.33
2022-10-06T01:25:39.963Z,14.30
2022-10-06T01:28:07.808Z,14.27
2022-10-06T01:31:01.536Z,14.24
2022-10-06T01:33:29.724Z,14.21
2022-10-06T01:35:59.108Z,14.19
2022-10-06T01:38:25.747Z,14.16
2022-10-06T01:40:53.073Z,14.16
2022-10-06T01:43:19.924Z,14.15
2022-10-06T01:45:51.638Z,14.13
2022-10-06T01:48:17.932Z,14.09
2022-10-06T01:50:44.777Z,14.08
2022-10-06T01:53:11.345Z,14.06
2022-10-06T01:55:37.779Z,14.00
2022-10-06T01:58:04.125Z,13.97
2022-10-06T02:00:30.619Z,13.96
2022-10-06T02:02:57.220Z,13.92
2022-10-06T02:05:23.839Z,13.89
2022-10-06T02:07:50.167Z,13.85
2022-10-06T02:10:16.486Z,13.81
2022-10-06T02:12:42.790Z,13.80
2022-10-06T02:15:11.016Z,13.77
2022-10-06T02:17:38.095Z,13.74
2022-10-06T02:20:05.269Z,13.70
2022-10-06T02:22:31.574Z,13.69
2022-10-06T02:24:58.042Z,13.65
2022-10-06T02:27:24.427Z,13.62
2022-10-06T02:29:50.920Z,13.60
2022-10-06T02:32:17.218Z,13.56
2022-10-06T02:34:43.575Z,13.53
2022-10-06T02:37:10.630Z,13.51
2022-10-06T02:39:36.917Z,13.47
2022-10-06T02:42:03.985Z,13.45
2022-10-06T02:44:30.592Z,13.44
2022-10-06T02:46:56.991Z,13.42
2022-10-06T02:49:23.304Z,13.39
2022-10-06T02:51:49.848Z,13.36
2022-10-06T02:54:16.396Z,13.32
2022-10-06T02:56:43.009Z,13.31
2022-10-06T02:59:09.312Z,13.28
2022-10-06T03:01:35.736Z,13.25
2022-10-06T03:04:02.086Z,13.24
2022-10-06T03:06:29.797Z,13.22
2022-10-06T03:08:59.056Z,13.20
2022-10-06T03:11:26.581Z,13.14
2022-10-06T03:13:53.227Z,13.12
2022-10-06T03:16:24.184Z,13.06
2022-10-06T03:18:51.807Z,12.99
2022-10-06T03:21:19.144Z,12.96
2022-10-06T03:23:49.603Z,12.93
2022-10-06T03:26:17.644Z,12.92
2022-10-06T03:28:44.827Z,12.86
2022-10-06T03:31:11.600Z,12.84
2022-10-06T03:33:38.031Z,12.82
2022-10-06T03:36:06.864Z,12.80
2022-10-06T03:38:33.534Z,12.81
2022-10-06T03:41:07.578Z,12.76
2022-10-06T03:43:34.583Z,12.73
2022-10-06T03:46:01.370Z,12.71
2022-10-06T03:48:28.985Z,12.70
2022-10-06T03:51:02.944Z,12.65
2022-10-06T03:53:29.821Z,12.64
2022-10-06T03:56:00.344Z,12.63
2022-10-06T03:58:30.099Z,12.61
2022-10-06T04:01:00.981Z,12.58
2022-10-06T04:03:27.505Z,12.57
2022-10-06T04:05:54.776Z,12.54
2022-10-06T04:08:21.070Z,12.53
2022-10-06T04:10:47.579Z,12.50
2022-10-06T04:13:15.594Z,12.48
2022-10-06T04:15:41.890Z,12.48
2022-10-06T04:18:08.205Z,12.43
2022-10-06T04:20:34.513Z,12.42
2022-10-06T04:23:00.783Z,12.40
2022-10-06T04:25:27.094Z,12.41
2022-10-06T04:27:53.434Z,12.37
2022-10-06T04:30:19.905Z,12.35
2022-10-06T04:32:46.198Z,12.34
2022-10-06T04:35:12.485Z,12.34
2022-10-06T04:37:39.359Z,12.33
2022-10-06T04:40:06.023Z,12.31
2022-10-06T04:42:35.109Z,12.30
2022-10-06T04:45:01.783Z,12.29
2022-10-06T04:47:28.097Z,12.29
2022-10-06T04:49:54.410Z,12.28
2022-10-06T04:52:20.741Z,12.28
2022-10-06T04:54:47.033Z,12.24
2022-10-06T04:57:13.328Z,12.24
2022-10-06T05:00:03.018Z,12.24
2022-10-06T05:02:32.482Z,12.23
2022-10-06T05:04:58.888Z,12.23
2022-10-06T05:07:25.209Z,12.21
2022-10-06T05:09:51.542Z,12.19
2022-10-06T05:12:18.056Z,12.15
2022-10-06T05:14:46.937Z,12.14
2022-10-06T05:17:13.550Z,12.12
2022-10-06T05:19:39.868Z,12.12
2022-10-06T05:22:06.211Z,12.11
2022-10-06T05:24:32.534Z,12.08
2022-10-06T05:27:02.090Z,12.06
2022-10-06T05:29:28.585Z,12.02
2022-10-06T05:31:55.585Z,11.99
2022-10-06T05:34:22.051Z,12.01
2022-10-06T05:36:48.412Z,11.99
2022-10-06T05:39:14.720Z,11.99
2022-10-06T05:41:41.053Z,11.97
2022-10-06T05:44:08.604Z,11.96
2022-10-06T05:46:35.327Z,11.96
2022-10-06T05:49:07.050Z,11.95
2022-10-06T05:51:34.292Z,11.94
2022-10-06T05:54:03.238Z,11.92
2022-10-06T05:56:36.581Z,11.92
2022-10-06T05:59:03.700Z,11.88
2022-10-06T06:01:31.334Z,11.92
2022-10-06T06:04:02.949Z,11.94
2022-10-06T06:06:30.989Z,11.91
2022-10-06T06:08:58.713Z,11.93
2022-10-06T06:11:27.548Z,11.94
2022-10-06T06:13:57.925Z,11.88
2022-10-06T06:16:24.802Z,11.93
2022-10-06T06:18:51.429Z,11.96
2022-10-06T06:21:17.828Z,11.98
2022-10-06T06:23:46.325Z,11.96
2022-10-06T06:26:26.021Z,11.98
2022-10-06T06:28:53.462Z,11.98
2022-10-06T06:31:22.934Z,12.01
2022-10-06T06:33:53.701Z,12.06
2022-10-06T06:36:20.254Z,12.05
2022-10-06T06:38:49.613Z,12.08
2022-10-06T06:41:17.480Z,12.11
2022-10-06T06:43:44.353Z,12.18
2022-10-06T06:46:11.450Z,12.16
2022-10-06T06:48:38.034Z,12.26
2022-10-06T06:51:05.137Z,12.29
2022-10-06T06:53:31.960Z,12.33
2022-10-06T06:56:06.366Z,12.37
2022-10-06T06:58:33.200Z,12.45
2022-10-06T07:01:06.766Z,12.49
2022-10-06T07:03:56.054Z,12.53
2022-10-06T07:06:20.641Z,12.57
2022-10-06T07:08:48.803Z,12.63
2022-10-06T07:11:19.300Z,12.67
2022-10-06T07:13:46.382Z,12.72
2022-10-06T07:16:32.880Z,12.83
2022-10-06T07:19:23.822Z,13.02
2022-10-06T07:22:42.508Z,13.14
2022-10-06T07:25:25.334Z,13.32
2022-10-06T07:27:51.993Z,13.49
2022-10-06T07:30:20.224Z,13.61
2022-10-06T07:32:47.961Z,13.63
2022-10-06T07:35:15.437Z,13.67
2022-10-06T07:37:41.783Z,13.95
2022-10-06T07:40:09.056Z,14.08
2022-10-06T07:42:48.085Z,14.17
2022-10-06T07:45:37.998Z,14.30
2022-10-06T07:48:14.647Z,14.41
2022-10-06T07:50:41.855Z,14.50
2022-10-06T07:53:11.243Z,14.68
2022-10-06T07:55:39.787Z,14.85
2022-10-06T07:58:16.141Z,14.96
2022-10-06T08:00:42.942Z,15.03
2022-10-06T08:03:10.414Z,15.17
2022-10-06T08:05:39.027Z,15.23
2022-10-06T08:08:05.980Z,15.43
2022-10-06T08:10:32.304Z,15.66
2022-10-06T08:12:58.666Z,15.77
2022-10-06T08:15:24.940Z,16.01
2022-10-06T08:17:53.841Z,16.31
2022-10-06T08:20:20.156Z,16.50
2022-10-06T08:22:47.501Z,16.81
2022-10-06T08:25:14.082Z,17.04
2022-10-06T08:27:44.122Z,17.36
2022-10-06T08:30:11.742Z,17.55
2022-10-06T08:32:38.147Z,17.69
2022-10-06T08:35:04.977Z,17.74
2022-10-06T08:37:31.298Z,17.91
2022-10-06T08:39:57.600Z,18.13
2022-10-06T08:42:32.118Z,18.26
2022-10-06T08:45:00.247Z,18.45
2022-10-06T08:47:33.946Z,18.70
2022-10-06T08:50:01.170Z,18.77
2022-10-06T08:52:46.789Z,18.95
2022-10-06T08:55:37.232Z,19.09
2022-10-06T08:58:18.051Z,19.31
2022-10-06T09:00:44.390Z,19.47
2022-10-06T09:03:17.456Z,19.59
2022-10-06T09:05:44.577Z,19.68
2022-10-06T09:08:29.487Z,19.69
2022-10-06T09:11:08.321Z,19.87
2022-10-06T09:13:41.767Z,19.92
2022-10-06T09:16:15.294Z,20.11
2022-10-06T09:19:08.632Z,20.04
2022-10-06T09:21:49.961Z,20.03
2022-10-06T09:24:17.623Z,20.16
2022-10-06T09:26:46.426Z,20.37
2022-10-06T09:29:12.936Z,20.20
2022-10-06T09:31:42.155Z,20.47
2022-10-06T09:34:08.613Z,20.44
2022-10-06T09:37:00.271Z,20.60
2022-10-06T09:39:32.480Z,20.88
2022-10-06T09:42:18.988Z,21.01
2022-10-06T09:44:51.351Z,21.12
2022-10-06T09:47:24.290Z,21.12
2022-10-06T09:50:03.870Z,21.12
2022-10-06T09:52:30.228Z,21.31
2022-10-06T09:55:09.997Z,21.59
2022-10-06T09:57:37.235Z,21.68
2022-10-06T10:00:04.605Z,21.63
2022-10-06T10:02:37.104Z,21.56
2022-10-06T10:05:18.367Z,21.73
2022-10-06T10:07:48.042Z,21.63
2022-10-06T10:10:19.088Z,21.76
2022-10-06T10:12:49.249Z,21.80
2022-10-06T10:15:18.438Z,21.68
2022-10-06T10:17:48.167Z,21.82
2022-10-06T10:20:41.242Z,22.13
2022-10-06T10:23:16.591Z,22.25
2022-10-06T10:25:51.714Z,22.29
2022-10-06T10:28:21.050Z,22.07
2022-10-06T10:30:51.900Z,22.11
2022-10-06T10:33:37.015Z,22.22
2022-10-06T10:36:05.706Z,22.44
2022-10-06T10:38:40.744Z,22.64
2022-10-06T10:41:16.208Z,22.89
2022-10-06T10:43:47.797Z,22.71
2022-10-06T10:46:28.607Z,22.54
2022-10-06T10:48:55.335Z,22.79
2022-10-06T10:51:24.809Z,22.95
2022-10-06T10:53:54.844Z,23.14
2022-10-06T10:56:22.861Z,23.08
2022-10-06T10:58:52.474Z,23.52
2022-10-06T11:01:39.225Z,23.82
2022-10-06T11:04:10.104Z,23.69
2022-10-06T11:06:43.464Z,23.90
2022-10-06T11:09:09.777Z,23.80
2022-10-06T11:11:55.048Z,23.57
2022-10-06T11:14:33.027Z,23.70
2022-10-06T11:17:03.997Z,23.95
2022-10-06T11:19:42.537Z,24.29
2022-10-06T11:22:22.803Z,24.52
2022-10-06T11:24:57.754Z,24.69
2022-10-06T11:27:33.829Z,24.80
2022-10-06T11:30:02.904Z,25.00
2022-10-06T11:32:38.547Z,24.79
2022-10-06T11:35:16.024Z,24.74
2022-10-06T11:37:49.139Z,24.47
2022-10-06T11:40:32.189Z,24.63
2022-10-06T11:43:06.112Z,24.23
2022-10-06T11:45:48.899Z,24.57
2022-10-06T11:48:29.744Z,24.39
2022-10-06T11:50:57.053Z,24.21
2022-10-06T11:53:23.323Z,24.02
2022-10-06T11:56:09.598Z,23.98
2022-10-06T11:58:51.292Z,24.09
2022-10-06T12:01:39.341Z,24.32
2022-10-06T12:04:08.853Z,24.29
2022-10-06T12:06:47.474Z,24.18
2022-10-06T12:09:26.148Z,23.78
2022-10-06T12:11:55.964Z,23.52
2022-10-06T12:16:00.073Z,23.78
2022-10-06T12:17:19.751Z,24.05
2022-10-06T12:19:52.469Z,24.27
2022-10-06T12:22:31.862Z,24.36
2022-10-06T12:25:12.426Z,23.98
2022-10-06T12:27:52.005Z,23.93
2022-10-06T12:30:21.162Z,23.83
2022-10-06T12:32:47.627Z,23.76
2022-10-06T12:35:17.242Z,23.89
2022-10-06T12:37:53.084Z,23.97
2022-10-06T12:40:47.143Z,23.90
2022-10-06T12:43:20.793Z,23.95
2022-10-06T12:45:47.117Z,24.11
2022-10-06T12:48:21.949Z,24.22
2022-10-06T12:50:49.255Z,24.19
2022-10-06T12:53:25.317Z,24.04
2022-10-06T12:55:53.742Z,24.00
2022-10-06T12:58:26.005Z,23.72
2022-10-06T13:00:53.418Z,23.72
2022-10-06T13:03:24.194Z,23.63
2022-10-06T13:05:51.924Z,23.52
2022-10-06T13:08:21.517Z,23.64
2022-10-06T13:10:47.866Z,23.86
2022-10-06T13:13:24.308Z,23.73
2022-10-06T13:15:55.754Z,23.74
2022-10-06T13:18:23.066Z,23.79
2022-10-06T13:20:51.595Z,23.64
2022-10-06T13:23:23.061Z,23.57
2022-10-06T13:25:52.675Z,23.30
2022-10-06T13:28:21.135Z,23.10
2022-10-06T13:30:51.743Z,22.99
2022-10-06T13:33:18.514Z,23.09
2022-10-06T13:35:45.615Z,23.19
2022-10-06T13:38:12.048Z,23.34
2022-10-06T13:40:44.639Z,23.34
2022-10-06T13:43:15.297Z,23.53
2022-10-06T13:45:42.851Z,23.74
2022-10-06T13:48:17.132Z,23.57
2022-10-06T13:50:47.640Z,23.48
2022-10-06T13:53:25.653Z,23.45
2022-10-06T13:55:52.548Z,23.43
2022-10-06T13:58:19.352Z,23.40
2022-10-06T14:00:48.641Z,23.19
2022-10-06T14:03:24.854Z,23.07
2022-10-06T14:05:52.245Z,23.01
2022-10-06T14:08:24.356Z,23.12
2022-10-06T14:10:53.026Z,22.94
2022-10-06T14:13:27.129Z,22.87
2022-10-06T14:16:01.825Z,22.96
2022-10-06T14:18:31.045Z,22.90
2022-10-06T14:20:57.522Z,23.11
2022-10-06T14:23:42.878Z,23.16
2022-10-06T14:26:11.104Z,23.04
2022-10-06T14:31:03.853Z,23.14
2022-10-06T14:33:30.231Z,23.11
2022-10-06T14:35:56.554Z,22.96
2022-10-06T14:38:24.488Z,22.88
2022-10-06T14:40:51.305Z,22.90
2022-10-06T14:43:18.196Z,22.67
2022-10-06T14:45:45.017Z,22.81
2022-10-06T14:48:15.001Z,22.88
2022-10-06T14:50:45.114Z,22.81
2022-10-06T14:53:13.741Z,22.31
2022-10-06T14:55:40.153Z,22.19
2022-10-06T14:58:06.545Z,21.99
2022-10-06T15:00:33.027Z,21.92
2022-10-06T15:02:59.405Z,21.73
2022-10-06T15:05:25.844Z,21.62
2022-10-06T15:08:10.608Z,21.48
2022-10-06T15:10:38.763Z,21.32
2022-10-06T15:13:06.311Z,21.19
2022-10-06T15:15:33.657Z,21.11
2022-10-06T15:18:01.461Z,20.93
2022-10-06T15:20:27.765Z,20.75
2022-10-06T15:22:54.065Z,20.65
2022-10-06T15:25:38.875Z,20.50
2022-10-06T15:28:23.919Z,20.47
2022-10-06T15:30:50.373Z,20.45
2022-10-06T15:33:17.177Z,20.24
2022-10-06T15:35:48.654Z,20.17
2022-10-06T15:38:14.956Z,20.10
2022-10-06T15:40:41.333Z,20.08
2022-10-06T15:43:07.640Z,19.83
2022-10-06T15:45:36.097Z,19.87
2022-10-06T15:48:02.454Z,19.81
2022-10-06T15:50:29.127Z,19.79
2022-10-06T15:52:55.425Z,19.82
2022-10-06T15:55:21.770Z,19.86
2022-10-06T15:57:48.099Z,19.88
2022-10-06T16:00:14.609Z,19.86
2022-10-06T16:02:41.053Z,19.75
2022-10-06T16:05:07.641Z,19.69
2022-10-06T16:07:34.861Z,19.63
2022-10-06T16:10:01.292Z,19.54
2022-10-06T16:12:28.531Z,19.45
2022-10-06T16:14:55.365Z,19.38
2022-10-06T16:17:21.697Z,19.31
2022-10-06T16:19:48.186Z,19.13
2022-10-06T16:22:16.432Z,19.05
2022-10-06T16:24:42.740Z,18.99
2022-10-06T16:27:12.995Z,18.85
2022-10-06T16:29:39.340Z,18.79
2022-10-06T16:32:05.632Z,18.75
2022-10-06T16:34:32.690Z,18.71
2022-10-06T16:36:59.066Z,18.69
2022-10-06T16:39:25.395Z,18.65
2022-10-06T16:41:51.797Z,18.62
2022-10-06T16:44:18.390Z,18.53
2022-10-06T16:46:44.959Z,18.48
2022-10-06T16:49:11.443Z,18.41
2022-10-06T16:51:38.955Z,18.30
2022-10-06T16:54:06.669Z,18.23
2022-10-06T16:56:34.382Z,18.18
2022-10-06T16:59:03.654Z,18.09
2022-10-06T17:01:35.096Z,18.01
2022-10-06T17:04:03.338Z,17.94
2022-10-06T17:06:30.547Z,17.85
2022-10-06T17:08:56.897Z,17.77
2022-10-06T17:11:25.316Z,17.64
2022-10-06T17:13:53.121Z,17.57
2022-10-06T17:16:21.381Z,17.43
2022-10-06T17:18:48.500Z,17.38
2022-10-06T17:21:39.756Z,17.29
2022-10-06T17:24:03.145Z,17.19
2022-10-06T17:26:30.650Z,17.07
2022-10-06T17:29:01.437Z,17.01
2022-10-06T17:31:35.766Z,16.93
2022-10-06T17:34:03.119Z,16.87
2022-10-06T17:36:29.504Z,16.82
2022-10-06T17:39:01.523Z,16.78
2022-10-06T17:41:31.873Z,16.72
2022-10-06T17:44:05.835Z,16.65
2022-10-06T17:46:34.145Z,16.57
2022-10-06T17:49:02.909Z,16.52
2022-10-06T17:51:29.369Z,16.46
2022-10-06T17:53:57.281Z,16.39
2022-10-06T17:56:25.058Z,16.34
2022-10-06T17:58:55.804Z,16.23
2022-10-06T18:01:23.295Z,16.19
2022-10-06T18:03:51.296Z,16.14
2022-10-06T18:06:17.745Z,16.08
2022-10-06T18:08:44.938Z,16.02
2022-10-06T18:11:30.572Z,15.96
2022-10-06T18:13:58.876Z,15.90
2022-10-06T18:16:39.956Z,15.90
2022-10-06T18:19:07.677Z,15.84
2022-10-06T18:21:38.775Z,15.82
2022-10-06T18:24:06.662Z,15.76
2022-10-06T18:26:37.378Z,15.73
2022-10-06T18:29:04.288Z,15.72
2022-10-06T18:31:30.609Z,15.69
2022-10-06T18:36:43.504Z,15.59
2022-10-06T18:39:11.627Z,15.56
2022-10-06T18:41:39.562Z,15.51
2022-10-06T18:44:05.947Z,15.48
2022-10-06T18:46:51.087Z,15.47
2022-10-06T18:49:18.622Z,15.44
2022-10-06T18:51:48.998Z,15.43
2022-10-06T18:54:17.613Z,15.44
2022-10-06T18:56:47.560Z,15.40
2022-10-06T18:59:14.201Z,15.40
2022-10-06T19:01:41.770Z,15.35
2022-10-06T19:04:09.957Z,15.34
2022-10-06T19:06:37.438Z,15.26
2022-10-06T19:09:04.911Z,15.21
2022-10-06T19:11:46.101Z,15.19
2022-10-06T19:14:14.504Z,15.16
2022-10-06T19:16:41.694Z,15.12
2022-10-06T19:19:12.482Z,15.12
2022-10-06T19:21:40.693Z,15.08
2022-10-06T19:24:08.053Z,15.06
2022-10-06T19:26:40.323Z,15.06
2022-10-06T19:29:09.340Z,15.03
2022-10-06T19:31:37.947Z,15.00
2022-10-06T19:34:05.162Z,14.98
2022-10-06T19:36:33.113Z,14.98
2022-10-06T19:39:01.463Z,14.98
2022-10-06T19:41:46.638Z,14.95
2022-10-06T19:44:12.961Z,14.92
2022-10-06T19:46:39.314Z,14.89
2022-10-06T19:49:05.957Z,14.85
2022-10-06T19:51:34.175Z,14.84
2022-10-06T19:54:02.629Z,14.83
2022-10-06T19:56:30.100Z,14.85
2022-10-06T19:58:58.375Z,14.82
2022-10-06T20:01:25.292Z,14.75
2022-10-06T20:03:52.559Z,14.76
2022-10-06T20:06:20.522Z,14.75
2022-10-06T20:08:46.929Z,14.74
2022-10-06T20:11:14.760Z,14.67
2022-10-06T20:13:41.881Z,14.64
2022-10-06T20:16:10.277Z,14.65
2022-10-06T20:18:47.026Z,14.61
2022-10-06T20:21:16.465Z,14.60
2022-10-06T20:23:48.151Z,14.58
2022-10-06T20:26:20.847Z,14.56
2022-10-06T20:28:53.361Z,14.53
2022-10-06T20:31:21.500Z,14.53
2022-10-06T20:33:50.206Z,14.52
2022-10-06T20:36:17.580Z,14.54
2022-10-06T20:39:06.877Z,14.49
2022-10-06T20:41:33.822Z,14.49
2022-10-06T20:44:01.692Z,14.49
2022-10-06T20:46:31.310Z,14.44
2022-10-06T20:49:03.442Z,14.42
2022-10-06T20:51:33.933Z,14.43
2022-10-06T20:54:01.541Z,14.43
2022-10-06T20:56:28.049Z,14.41
2022-10-06T20:58:55.010Z,14.40
2022-10-06T21:01:25.739Z,14.35
2022-10-06T21:03:55.675Z,14.34
2022-10-06T21:06:23.643Z,14.30
2022-10-06T21:08:51.455Z,14.28
2022-10-06T21:11:19.714Z,14.28
2022-10-06T21:13:53.981Z,14.25
2022-10-06T21:16:22.044Z,14.24
2022-10-06T21:18:48.759Z,14.23
2022-10-06T21:21:15.577Z,14.22
2022-10-06T21:23:44.424Z,14.22
2022-10-06T21:26:12.404Z,14.19
2022-10-06T21:28:40.586Z,14.18
2022-10-06T21:31:12.948Z,14.17
2022-10-06T21:33:43.397Z,14.18
2022-10-06T21:36:14.671Z,14.17
2022-10-06T21:38:43.475Z,14.18
2022-10-06T21:41:29.469Z,14.13
2022-10-06T21:43:57.100Z,14.15
2022-10-06T21:46:28.907Z,14.15
2022-10-06T21:48:57.979Z,14.09
2022-10-06T21:51:25.615Z,14.12
2022-10-06T21:53:52.755Z,14.09
2022-10-06T21:56:21.024Z,14.05
2022-10-06T21:58:52.852Z,14.02
2022-10-06T22:01:21.171Z,14.03
2022-10-06T22:03:47.835Z,13.97
2022-10-06T22:06:19.136Z,14.00
2022-10-06T22:08:46.861Z,13.98
2022-10-06T22:11:15.641Z,13.94
2022-10-06T22:13:43.916Z,13.93
2022-10-06T22:16:11.622Z,13.91
2022-10-06T22:18:39.514Z,13.88
2022-10-06T22:21:19.835Z,13.85
2022-10-06T22:23:47.288Z,13.85
2022-10-06T22:26:14.896Z,13.82
2022-10-06T22:28:48.792Z,13.79
2022-10-06T22:31:16.349Z,13.72
2022-10-06T22:33:43.454Z,13.70
2022-10-06T22:36:11.175Z,13.67
2022-10-06T22:38:40.250Z,13.65
2022-10-06T22:41:07.967Z,13.62
2022-10-06T22:43:34.717Z,13.57
2022-10-06T22:46:01.647Z,13.52
2022-10-06T22:48:29.123Z,13.48
2022-10-06T22:50:55.759Z,13.46
2022-10-06T22:53:23.289Z,13.44
2022-10-06T22:55:50.062Z,13.44
2022-10-06T22:58:16.779Z,13.43
2022-10-06T23:00:43.777Z,13.41
2022-10-06T23:03:10.782Z,13.40
2022-10-06T23:05:37.560Z,13.35
2022-10-06T23:08:04.601Z,13.36
2022-10-06T23:10:32.441Z,13.35
2022-10-06T23:12:59.174Z,13.31
2022-10-06T23:15:26.484Z,13.27
2022-10-06T23:17:53.210Z,13.25
2022-10-06T23:20:20.436Z,13.26
2022-10-06T23:22:47.926Z,13.28
2022-10-06T23:25:14.231Z,13.27
2022-10-06T23:27:42.104Z,13.26
2022-10-06T23:30:09.143Z,13.22
2022-10-06T23:32:37.375Z,13.23
2022-10-06T23:35:04.416Z,13.22
2022-10-06T23:37:32.623Z,13.20
2022-10-06T23:39:59.532Z,13.14
2022-10-06T23:42:25.850Z,13.12
2022-10-06T23:44:52.127Z,13.01
2022-10-06T23:47:18.462Z,12.95
2022-10-06T23:49:44.770Z,12.91
2022-10-06T23:52:11.147Z,12.85
2022-10-06T23:54:37.564Z,12.78
2022-10-06T23:57:03.838Z,12.73
2022-10-06T23:59:31.398Z,12.70
